Time;durP1;ratioP1;P1;durP2;ratioP2;P2;SDS_P1;SDS_P2;PMS_P1;PMS_P2;Temp;Humidity;BMP_temperature;BMP_pressure;BME280_temperature;BME280_humidity;BME280_pressure;Samples;Min_cycle;Max_cycle;Signal;HPM_P1;HPM_P2
2022/11/04 00:01:41;;;;;;;7.90;2.22;;;;;;;12.98;89.97;98341.78;5095781;28;20042;-45
2022/11/04 00:04:07;;;;;;;9.70;3.45;;;;;;;13.13;88.79;98332.66;5094705;28;20533;-45
2022/11/04 00:06:33;;;;;;;7.95;3.28;;;;;;;13.17;87.41;98336.44;5095968;28;20020;-45
2022/11/04 00:08:59;;;;;;;11.30;2.40;;;;;;;12.94;86.63;98339.84;5094586;28;20024;-45
2022/11/04 00:14:11;;;;;;;18.65;3.45;;;;;;;12.55;88.36;98326.16;5096413;28;20035;-46
2022/11/04 00:19:21;;;;;;;11.55;3.10;;;;;;;12.54;88.14;98333.25;5095561;28;20071;-45
2022/11/04 00:29:55;;;;;;;7.65;2.50;;;;;;;11.97;87.93;98332.66;5095816;28;20031;-45
2022/11/04 00:35:22;;;;;;;9.50;2.95;;;;;;;11.65;87.79;98330.13;5072842;28;20028;-45
2022/11/04 00:37:48;;;;;;;5.50;2.47;;;;;;;11.48;87.59;98324.59;5056023;28;20068;-45
2022/11/04 00:40:15;;;;;;;6.60;2.75;;;;;;;11.43;88.54;98329.69;5072739;28;20056;-45
2022/11/04 00:42:45;;;;;;;6.93;2.33;;;;;;;11.58;89.25;98326.72;5055894;28;20040;-45
2022/11/04 00:45:11;;;;;;;6.47;2.58;;;;;;;11.57;88.82;98333.81;5056217;28;20383;-45
2022/11/04 00:47:37;;;;;;;7.93;3.42;;;;;;;11.66;88.80;98329.09;5072718;28;20125;-45
2022/11/04 00:50:02;;;;;;;4.88;2.30;;;;;;;11.62;86.95;98335.78;5072641;28;20525;-45
2022/11/04 00:52:28;;;;;;;5.53;2.33;;;;;;;11.42;86.64;98341.22;5072643;28;20571;-45
2022/11/04 00:54:54;;;;;;;5.22;1.92;;;;;;;11.34;87.14;98334.41;5055713;28;20182;-45
2022/11/04 00:57:19;;;;;;;7.32;2.60;;;;;;;11.29;87.05;98331.63;5055725;28;20045;-45
2022/11/04 00:59:45;;;;;;;10.85;3.08;;;;;;;11.27;87.60;98324.94;5072479;28;20107;-45
2022/11/04 01:02:12;;;;;;;10.38;2.72;;;;;;;11.32;87.96;98319.88;5072190;28;20126;-45
2022/11/04 01:04:38;;;;;;;4.22;2.40;;;;;;;11.27;87.54;98328.41;5072405;28;20031;-45
2022/11/04 01:07:04;;;;;;;5.78;2.22;;;;;;;11.12;86.06;98327.88;5055514;28;20032;-45
2022/11/04 01:09:29;;;;;;;3.05;2.47;;;;;;;10.88;85.48;98322.38;5075962;28;20112;-45
2022/11/04 01:11:55;;;;;;;5.57;2.40;;;;;;;10.67;85.82;98317.47;5094684;28;20024;-45
2022/11/04 01:14:21;;;;;;;8.25;2.65;;;;;;;10.70;87.70;98322.28;5093335;28;20013;-45
2022/11/04 01:16:49;;;;;;;7.65;2.67;;;;;;;10.68;88.14;98311.19;5094644;28;20028;-45
2022/11/04 01:19:15;;;;;;;5.25;2.30;;;;;;;10.70;88.63;98301.28;5094597;28;20476;-45
2022/11/04 01:21:41;;;;;;;4.97;2.60;;;;;;;10.73;88.19;98301.66;5093152;28;20081;-45
2022/11/04 01:24:06;;;;;;;6.13;2.70;;;;;;;10.65;87.17;98299.28;5094496;28;20448;-45
2022/11/04 01:26:32;;;;;;;3.80;2.20;;;;;;;10.58;87.44;98294.09;5093162;28;20467;-45
2022/11/04 01:28:59;;;;;;;8.93;3.13;;;;;;;10.50;87.13;98288.25;5093076;28;20520;-45
2022/11/04 01:31:27;;;;;;;8.70;3.25;;;;;;;10.54;87.91;98287.66;5094302;28;20501;-45
2022/11/04 01:33:54;;;;;;;5.32;2.20;;;;;;;10.54;87.60;98292.91;5094256;28;20028;-45
2022/11/04 01:36:21;;;;;;;4.93;3.00;;;;;;;10.47;87.96;98292.13;5094209;28;20016;-45
2022/11/04 01:38:47;;;;;;;3.92;2.33;;;;;;;10.48;87.66;98288.47;5092884;28;20036;-45
2022/11/04 01:41:19;;;;;;;5.68;3.03;;;;;;;10.45;87.53;98278.41;5092806;28;20084;-45
2022/11/04 01:43:59;;;;;;;4.45;2.53;;;;;;;10.34;87.65;98279.88;5092880;28;20032;-45
2022/11/04 01:46:41;;;;;;;4.75;2.40;;;;;;;10.31;88.17;98269.00;5094059;28;20055;-45
2022/11/04 01:49:24;;;;;;;3.33;1.80;;;;;;;10.36;87.49;98263.91;5094091;28;20028;-45
2022/11/04 01:51:52;;;;;;;4.07;1.95;;;;;;;10.44;85.98;98263.66;5092960;28;20490;-45
2022/11/04 01:54:19;;;;;;;3.78;2.47;;;;;;;10.35;86.00;98254.44;5093911;28;20456;-45
2022/11/04 01:56:47;;;;;;;4.60;2.78;;;;;;;10.24;86.49;98253.25;5092516;28;20111;-45
2022/11/04 01:59:21;;;;;;;6.70;2.80;;;;;;;10.22;87.49;98251.84;5093871;28;20582;-45
2022/11/04 02:01:47;;;;;;;6.03;2.40;;;;;;;10.35;88.69;98243.94;5093721;28;20024;-45
2022/11/04 02:04:25;;;;;;;29.17;3.65;;;;;;;10.37;88.98;98247.97;5093728;28;20039;-45
2022/11/04 02:06:54;;;;;;;5.20;2.70;;;;;;;10.63;89.74;98250.66;5093690;28;20493;-45
2022/11/04 02:09:21;;;;;;;6.78;2.28;;;;;;;10.77;89.01;98239.06;5093617;28;20024;-45
2022/11/04 02:14:33;;;;;;;7.45;2.00;;;;;;;10.68;87.88;98256.88;5093580;28;20038;-45
2022/11/04 02:17:28;;;;;;;5.80;2.10;;;;;;;10.71;88.78;98240.72;5093443;28;20012;-45
2022/11/04 02:20:41;;;;;;;26.92;22.63;;;;;;;10.91;88.44;98243.22;5093186;28;20482;-45
2022/11/04 02:23:34;;;;;;;5.45;2.50;;;;;;;10.93;87.67;98233.28;5030395;28;20047;-45
2022/11/04 02:26:21;;;;;;;6.82;2.80;;;;;;;10.80;87.34;98217.63;5030783;28;20061;-46
2022/11/04 02:29:08;;;;;;;3.70;2.28;;;;;;;10.82;86.42;98212.19;5014320;28;20040;-45
2022/11/04 02:32:09;;;;;;;6.60;2.33;;;;;;;10.58;85.78;98214.53;5030915;28;20030;-45
2022/11/04 02:35:12;;;;;;;6.40;2.22;;;;;;;10.30;86.19;98209.66;5014240;28;20072;-45
2022/11/04 02:37:46;;;;;;;6.18;2.25;;;;;;;10.08;86.34;98203.91;5014161;28;20559;-45
2022/11/04 02:40:50;;;;;;;3.08;1.92;;;;;;;9.88;87.08;98193.50;5013957;28;20033;-45
2022/11/04 02:43:24;;;;;;;6.90;2.30;;;;;;;9.79;87.54;98182.44;5013128;28;20163;-45
2022/11/04 02:46:00;;;;;;;4.33;2.23;;;;;;;9.69;87.89;98182.88;5030466;28;20048;-45
2022/11/04 02:48:37;;;;;;;6.50;2.13;;;;;;;9.76;88.88;98178.44;5013982;28;20270;-45
2022/11/04 02:51:12;;;;;;;3.90;1.73;;;;;;;9.84;87.64;98174.78;5030436;28;20033;-45
2022/11/04 02:54:13;;;;;;;6.18;1.98;;;;;;;9.80;87.14;98176.22;5030552;28;20037;-45
2022/11/04 02:56:50;;;;;;;7.78;3.55;;;;;;;9.76;86.82;98170.56;5027301;28;20543;-45
2022/11/04 02:59:43;;;;;;;12.77;2.70;;;;;;;9.83;87.57;98160.06;5069508;28;20047;-45
2022/11/04 03:02:18;;;;;;;17.95;15.40;;;;;;;9.95;87.89;98157.59;5092137;28;20047;-45
2022/11/04 03:04:49;;;;;;;8.63;5.00;;;;;;;9.97;87.67;98155.56;5091326;28;20035;-45
2022/11/04 03:07:17;;;;;;;7.35;3.40;;;;;;;10.01;88.04;98146.25;5092636;28;20032;-45
2022/11/04 03:09:51;;;;;;;6.68;5.30;;;;;;;9.90;86.62;98145.13;5092552;28;20054;-45
2022/11/04 03:12:24;;;;;;;4.68;2.67;;;;;;;9.74;87.13;98143.78;5091162;28;20028;-45
2022/11/04 03:14:59;;;;;;;6.47;2.15;;;;;;;9.74;87.92;98142.97;5091166;28;20153;-45
2022/11/04 03:17:54;;;;;;;;;;;;;;;9.79;87.98;98133.44;5092748;28;20032;-45
2022/11/04 03:20:24;;;;;;;2.83;1.63;;;;;;;9.75;86.90;98119.16;5050990;28;19921;-45
2022/11/04 03:22:54;;;;;;;2.95;1.00;;;;;;;9.70;85.16;98118.16;5050735;28;20021;-45
2022/11/04 03:25:26;;;;;;;8.63;1.73;;;;;;;9.61;85.14;98122.84;5052010;28;20033;-45
2022/11/04 03:28:25;;;;;;;2.15;1.60;;;;;;;9.54;85.28;98119.47;5052009;28;20025;-45
2022/11/04 03:30:55;;;;;;;4.18;1.52;;;;;;;9.45;85.45;98121.50;5052197;28;20039;-45
2022/11/04 03:33:38;;;;;;;3.90;1.90;;;;;;;9.36;85.90;98120.13;5051970;28;20482;-45
2022/11/04 03:36:07;;;;;;;4.80;1.98;;;;;;;9.34;85.82;98120.34;5050041;28;20056;-45
2022/11/04 03:38:34;;;;;;;1.70;1.38;;;;;;;9.31;85.82;98110.25;5050604;28;20063;-45
2022/11/04 03:41:03;;;;;;;3.03;1.58;;;;;;;9.29;85.82;98114.09;5050511;28;20029;-45
2022/11/04 03:43:31;;;;;;;3.22;1.52;;;;;;;9.24;85.50;98113.94;5050545;28;20116;-45
2022/11/04 03:45:57;;;;;;;3.25;1.80;;;;;;;9.16;85.65;98112.34;5050461;28;20021;-45
2022/11/04 03:48:23;;;;;;;5.55;1.73;;;;;;;9.14;85.85;98109.13;5052060;28;20379;-45
2022/11/04 03:50:50;;;;;;;5.07;2.08;;;;;;;9.11;86.05;98104.28;5050387;28;20086;-45
2022/11/04 03:53:23;;;;;;;8.93;2.20;;;;;;;9.19;86.50;98111.91;5051641;28;20437;-45
2022/11/04 03:56:07;;;;;;;2.47;2.13;;;;;;;9.20;86.06;98116.16;5051686;28;20083;-45
2022/11/04 03:58:54;;;;;;;6.20;1.75;;;;;;;9.09;85.82;98116.75;5051660;28;20028;-45
2022/11/04 04:01:44;;;;;;;3.17;2.15;;;;;;;9.06;86.02;98115.38;5051567;28;20491;-45
2022/11/04 04:04:26;;;;;;;6.03;2.00;;;;;;;9.02;86.05;98116.00;5051544;28;20025;-45
2022/11/04 04:06:58;;;;;;;5.22;1.77;;;;;;;8.98;85.47;98121.63;5051549;28;20037;-45
2022/11/04 04:09:59;;;;;;;6.70;1.83;;;;;;;8.94;85.45;98115.19;5050276;28;20112;-45
2022/11/04 04:12:24;;;;;;;5.95;2.88;;;;;;;9.00;85.61;98100.47;5041240;28;20041;-45
2022/11/04 04:15:06;;;;;;;9.77;1.83;;;;;;;9.11;85.13;98101.66;5050147;28;20083;-45
2022/11/04 04:18:10;;;;;;;3.45;1.35;;;;;;;9.17;84.67;98095.59;5051524;28;20502;-45
2022/11/04 04:20:38;;;;;;;8.82;1.48;;;;;;;9.27;84.92;98089.94;5087118;28;20087;-45
2022/11/04 04:28:47;;;;;;;6.82;2.03;;;;;;;9.54;83.74;98080.19;5091925;28;20401;-46
2022/11/04 04:31:48;;;;;;;5.63;1.60;;;;;;;9.64;83.73;98077.09;5091585;28;20032;-45
2022/11/04 04:34:04;;;;;;;4.63;1.95;;;;;;;9.68;81.63;98081.72;5091433;28;20451;-45
2022/11/04 04:36:34;;;;;;;8.32;2.00;;;;;;;9.74;80.68;98067.78;5091518;28;20081;-45
2022/11/04 04:47:23;;;;;;;3.88;1.42;;;;;;;9.82;78.76;98039.69;5094628;28;20409;-45
2022/11/04 04:49:54;;;;;;;8.93;5.05;;;;;;;9.61;79.25;98041.63;5093837;28;20020;-45
2022/11/04 04:52:22;;;;;;;3.25;1.90;;;;;;;9.46;79.97;98030.66;5095110;28;20067;-46
2022/11/04 04:54:48;;;;;;;3.47;1.80;;;;;;;9.39;80.99;98022.81;5095058;28;20024;-45
2022/11/04 04:57:15;;;;;;;6.13;1.65;;;;;;;9.32;81.17;98008.97;5095015;28;20395;-45
2022/11/04 04:59:40;;;;;;;2.22;1.10;;;;;;;9.25;82.14;98000.31;5093684;28;20028;-45
2022/11/04 05:02:06;;;;;;;39.00;2.80;;;;;;;9.38;83.43;97998.44;5094870;28;20073;-45
2022/11/04 05:04:32;;;;;;;6.10;1.75;;;;;;;9.42;82.81;97990.97;5093576;28;20505;-45
2022/11/04 05:06:57;;;;;;;26.38;2.58;;;;;;;9.45;83.10;98003.63;5094881;28;20028;-45
2022/11/04 05:09:23;;;;;;;4.80;1.88;;;;;;;9.41;81.94;97986.75;5094855;28;20024;-45
2022/11/04 05:11:49;;;;;;;11.00;2.03;;;;;;;9.23;82.31;97984.81;5094755;28;20024;-45
2022/11/04 05:14:15;;;;;;;7.40;1.95;;;;;;;9.24;83.53;97988.25;5094733;28;20134;-45
2022/11/04 05:16:40;;;;;;;8.70;2.45;;;;;;;9.33;84.11;97986.97;5093278;28;20032;-45
2022/11/04 05:19:06;;;;;;;7.10;2.05;;;;;;;9.44;81.43;97980.28;5093107;28;20044;-45
2022/11/04 05:21:32;;;;;;;8.07;1.90;;;;;;;9.45;80.53;97974.03;5094486;28;20136;-45
2022/11/04 05:23:57;;;;;;;6.13;1.88;;;;;;;9.51;81.31;97975.81;5094579;28;20101;-45
2022/11/04 05:26:23;;;;;;;7.85;1.40;;;;;;;9.74;79.93;97970.81;5094501;28;20017;-45
2022/11/04 05:28:49;;;;;;;4.40;1.17;;;;;;;9.80;78.66;97962.13;5094421;28;20100;-45
2022/11/04 05:31:14;;;;;;;4.22;1.10;;;;;;;9.80;77.36;97964.75;5093113;28;20038;-46
2022/11/04 05:33:40;;;;;;;5.80;1.70;;;;;;;9.82;77.84;97948.81;5093050;28;20035;-45
2022/11/04 05:36:10;;;;;;;6.72;1.80;;;;;;;9.90;77.09;97947.72;5094297;28;20069;-45
2022/11/04 05:38:36;;;;;;;4.45;1.42;;;;;;;9.91;77.34;97951.94;5094313;28;20055;-46
2022/11/04 05:41:03;;;;;;;12.27;1.58;;;;;;;9.86;77.23;97962.25;5092762;28;20036;-46
2022/11/04 05:43:28;;;;;;;7.85;1.70;;;;;;;9.87;78.92;97954.19;5094173;28;20024;-45
2022/11/04 05:45:54;;;;;;;4.80;1.50;;;;;;;10.07;79.43;97958.47;5092817;28;20046;-45
2022/11/04 05:48:20;;;;;;;4.95;1.48;;;;;;;10.23;78.22;97959.75;5094066;28;20024;-46
2022/11/04 05:50:46;;;;;;;5.20;1.83;;;;;;;10.29;77.04;97948.41;5094016;28;20024;-45
2022/11/04 05:53:11;;;;;;;6.60;1.45;;;;;;;10.44;77.85;97942.84;5092684;28;20024;-46
2022/11/04 05:55:37;;;;;;;8.73;2.90;;;;;;;10.49;76.37;97940.38;5092597;28;20030;-46
2022/11/04 05:58:03;;;;;;;2.30;1.20;;;;;;;10.36;76.72;97941.28;5092995;28;20378;-46
2022/11/04 06:00:28;;;;;;;15.00;2.05;;;;;;;10.38;77.20;97936.63;5093709;28;20506;-46
2022/11/04 06:02:57;;;;;;;8.13;2.45;;;;;;;10.51;77.35;97933.88;5092594;28;20051;-46
2022/11/04 06:05:24;;;;;;;8.00;1.80;;;;;;;10.64;77.42;97930.28;5093958;28;20386;-46
2022/11/04 06:07:50;;;;;;;9.25;2.20;;;;;;;10.83;77.53;97928.47;5093636;28;20531;-46
2022/11/04 06:10:15;;;;;;;7.40;1.50;;;;;;;11.23;76.88;97925.34;5093609;28;20150;-45
2022/11/04 06:12:41;;;;;;;6.80;1.95;;;;;;;11.47;75.67;97917.50;5092248;28;20181;-45
2022/11/04 06:15:07;;;;;;;9.25;1.70;;;;;;;11.51;75.48;97908.16;5092257;28;20521;-46
2022/11/04 06:17:33;;;;;;;6.05;1.33;;;;;;;11.54;75.13;97902.47;5092204;28;20031;-45
2022/11/04 06:19:59;;;;;;;9.20;1.70;;;;;;;11.59;74.59;97897.34;5091766;28;20032;-46
2022/11/04 06:22:25;;;;;;;7.07;1.25;;;;;;;11.60;73.00;97898.94;5093384;28;20031;-46
2022/11/04 06:24:50;;;;;;;7.72;1.35;;;;;;;11.45;71.50;97901.19;5092029;28;20062;-46
2022/11/04 06:27:16;;;;;;;7.97;1.33;;;;;;;11.31;71.73;97892.72;5093351;28;20020;-45
2022/11/04 06:29:42;;;;;;;6.45;1.85;;;;;;;11.30;71.93;97891.88;5093328;28;20065;-45
2022/11/04 06:32:10;;;;;;;5.00;1.35;;;;;;;11.41;71.23;97890.34;5075263;28;20039;-45
2022/11/04 06:34:36;;;;;;;2.63;1.23;;;;;;;11.43;70.94;97892.72;5091890;28;20024;-45
2022/11/04 06:37:03;;;;;;;6.50;2.15;;;;;;;11.72;72.45;97898.94;5075283;28;20082;-46
2022/11/04 06:39:29;;;;;;;36.60;3.53;;;;;;;12.13;72.32;97890.22;5091754;28;20086;-46
2022/11/04 06:41:55;;;;;;;17.00;2.58;;;;;;;12.29;70.64;97891.31;5092986;28;20052;-46
2022/11/04 06:44:21;;;;;;;22.45;3.70;;;;;;;12.48;70.95;97889.34;5091751;28;20487;-46
2022/11/04 06:46:46;;;;;;;18.60;2.10;;;;;;;12.73;69.02;97878.50;5091625;28;20116;-46
2022/11/04 06:49:16;;;;;;;7.80;1.33;;;;;;;12.61;64.99;97875.13;5091584;28;20375;-46
2022/11/04 06:51:42;;;;;;;9.98;2.00;;;;;;;12.34;65.13;97875.66;5092735;28;20034;-46
2022/11/04 06:54:08;;;;;;;6.90;1.27;;;;;;;12.20;65.12;97884.81;5092856;28;20501;-46
2022/11/04 06:56:34;;;;;;;11.05;1.55;;;;;;;12.11;65.96;97886.19;5091462;28;20020;-46
2022/11/04 06:59:00;;;;;;;8.25;1.27;;;;;;;12.04;64.19;97880.25;5092744;28;20108;-46
2022/11/04 07:01:28;;;;;;;4.43;1.00;;;;;;;12.09;64.64;97868.03;5091417;28;20024;-46
2022/11/04 07:03:57;;;;;;;9.27;0.93;;;;;;;12.17;63.93;97880.00;5092668;28;20047;-46
2022/11/04 07:06:24;;;;;;;10.40;2.25;;;;;;;12.21;62.93;97875.09;5092606;28;20497;-46
2022/11/04 07:08:51;;;;;;;3.58;0.77;;;;;;;12.28;62.09;97881.84;5092460;28;20374;-46
2022/11/04 07:11:20;;;;;;;3.97;0.80;;;;;;;12.34;60.56;97869.59;5091187;28;20039;-46
2022/11/04 07:13:46;;;;;;;6.05;0.90;;;;;;;12.39;58.94;97872.31;5091170;28;20558;-46
2022/11/04 07:16:12;;;;;;;2.83;0.90;;;;;;;12.41;59.19;97864.19;5091103;28;20028;-46
2022/11/04 07:18:38;;;;;;;2.88;0.45;;;;;;;12.43;59.32;97859.50;5074230;28;20115;-46
2022/11/04 07:21:04;;;;;;;2.00;0.75;;;;;;;12.45;58.39;97852.97;5090725;28;20543;-46
2022/11/04 07:23:30;;;;;;;2.20;0.60;;;;;;;12.40;58.38;97847.59;5090999;28;20039;-46
2022/11/04 07:26:00;;;;;;;4.55;0.90;;;;;;;12.32;59.31;97847.97;5090978;28;20486;-46
2022/11/04 07:28:27;;;;;;;9.68;1.10;;;;;;;12.28;60.17;97852.09;5090944;28;20150;-46
2022/11/04 07:30:58;;;;;;;6.47;1.15;;;;;;;12.23;60.59;97846.72;5090855;28;20038;-46
2022/11/04 07:33:25;;;;;;;3.15;1.00;;;;;;;12.23;60.21;97842.25;5090908;28;20028;-46
2022/11/04 07:35:52;;;;;;;3.42;1.13;;;;;;;12.25;59.99;97840.19;5074316;28;20501;-46
2022/11/04 07:38:19;;;;;;;5.22;1.00;;;;;;;12.33;59.78;97841.66;5090771;28;20020;-46
2022/11/04 07:40:45;;;;;;;3.65;1.00;;;;;;;12.42;59.47;97840.28;5091917;28;20028;-46
2022/11/04 07:43:10;;;;;;;6.10;1.25;;;;;;;12.45;59.86;97846.91;5092114;28;20031;-46
2022/11/04 07:45:36;;;;;;;3.35;1.23;;;;;;;12.49;59.74;97837.50;5091969;28;20104;-46
2022/11/04 07:48:02;;;;;;;5.63;1.30;;;;;;;12.57;59.61;97842.41;5092266;28;20044;-46
2022/11/04 07:50:28;;;;;;;4.80;1.30;;;;;;;12.68;59.43;97838.16;5090582;28;20035;-45
2022/11/04 07:52:54;;;;;;;4.28;0.98;;;;;;;12.76;58.94;97845.66;5090602;28;20031;-46
2022/11/04 07:55:20;;;;;;;5.82;1.30;;;;;;;12.83;58.72;97827.88;5092115;28;20028;-46
2022/11/04 07:57:46;;;;;;;4.20;1.10;;;;;;;12.90;57.71;97820.66;5090551;28;20036;-46
2022/11/04 08:00:15;;;;;;;8.02;1.40;;;;;;;12.90;57.77;97825.91;5090415;28;20020;-46
2022/11/04 08:02:45;;;;;;;4.00;1.20;;;;;;;12.94;57.38;97811.25;5090501;28;20121;-46
2022/11/04 08:05:12;;;;;;;5.53;1.10;;;;;;;12.97;56.34;97809.97;5090511;28;20093;-46
2022/11/04 08:07:39;;;;;;;5.63;1.00;;;;;;;12.97;57.72;97815.22;5090610;28;20099;-46
2022/11/04 08:10:05;;;;;;;7.70;1.40;;;;;;;13.08;57.75;97816.19;5073608;28;20027;-46
2022/11/04 08:12:31;;;;;;;3.85;1.20;;;;;;;13.23;57.15;97811.19;5091752;28;20418;-46
2022/11/04 08:15:00;;;;;;;4.72;1.08;;;;;;;13.40;56.94;97816.50;5092030;28;20016;-46
2022/11/04 08:17:26;;;;;;;2.53;0.75;;;;;;;13.48;56.77;97820.56;5091732;28;20486;-46
2022/11/04 08:19:51;;;;;;;5.78;1.15;;;;;;;13.44;55.93;97814.16;5090172;28;20051;-46
2022/11/04 08:22:17;;;;;;;3.97;1.00;;;;;;;13.33;56.29;97806.09;5093703;28;20024;-46
2022/11/04 08:24:46;;;;;;;2.35;0.80;;;;;;;13.28;55.49;97800.75;5094421;28;20085;-46
2022/11/04 08:27:12;;;;;;;3.78;0.70;;;;;;;13.18;55.79;97803.22;5095646;28;20016;-46
2022/11/04 08:29:38;;;;;;;4.00;0.80;;;;;;;13.07;56.67;97809.34;5094345;28;20127;-46
2022/11/04 08:32:05;;;;;;;3.80;0.98;;;;;;;13.02;57.05;97806.59;5095602;28;20052;-46
2022/11/04 08:34:31;;;;;;;4.35;1.13;;;;;;;12.95;56.86;97809.41;5077359;28;20027;-46
2022/11/04 08:36:57;;;;;;;6.72;0.90;;;;;;;12.84;58.38;97810.25;5095578;28;20024;-46
2022/11/04 08:39:23;;;;;;;4.82;0.90;;;;;;;12.73;60.45;97802.16;5095452;28;20020;-46
2022/11/04 08:41:49;;;;;;;4.63;0.75;;;;;;;12.62;60.91;97807.50;5095299;28;20023;-46
2022/11/04 08:44:15;;;;;;;3.95;0.73;;;;;;;12.45;61.57;97810.84;5095384;28;20028;-46
2022/11/04 08:46:43;;;;;;;5.43;1.10;;;;;;;12.22;63.57;97803.84;5095300;28;20016;-46
2022/11/04 08:49:09;;;;;;;7.88;1.00;;;;;;;12.16;63.63;97792.41;5095227;28;20486;-46
2022/11/04 08:51:38;;;;;;;4.45;1.25;;;;;;;12.21;64.52;97793.53;5095143;28;20032;-46
2022/11/04 08:54:04;;;;;;;4.10;0.90;;;;;;;12.24;64.98;97799.16;5093863;28;20028;-46
2022/11/04 08:56:33;;;;;;;2.70;0.95;;;;;;;12.24;64.11;97796.50;5093743;28;20131;-46
2022/11/04 08:59:00;;;;;;;5.15;0.88;;;;;;;12.27;63.74;97801.28;5095104;28;20114;-46
2022/11/04 09:01:27;;;;;;;4.03;0.90;;;;;;;12.31;65.29;97785.84;5093654;28;20020;-46
2022/11/04 09:03:53;;;;;;;4.55;0.90;;;;;;;12.36;64.76;97789.38;5094994;28;20048;-46
2022/11/04 09:06:23;;;;;;;5.38;0.80;;;;;;;12.21;66.55;97793.53;5093625;28;20122;-46
2022/11/04 09:08:50;;;;;;;6.47;1.10;;;;;;;12.10;68.39;97793.34;5094977;28;20438;-46
2022/11/04 09:11:16;;;;;;;3.65;0.75;;;;;;;12.04;67.44;97790.84;5093516;28;20032;-46
2022/11/04 09:13:42;;;;;;;4.38;0.77;;;;;;;12.13;66.69;97795.53;5094806;28;20039;-46
2022/11/04 09:16:11;;;;;;;4.38;0.77;;;;;;;12.06;67.84;97804.56;5093430;28;20165;-46
2022/11/04 09:18:36;;;;;;;6.47;1.23;;;;;;;11.97;68.18;97811.97;5093436;28;20031;-46
2022/11/04 09:21:04;;;;;;;4.40;1.13;;;;;;;11.86;70.22;97810.94;5093055;28;20488;-46
2022/11/04 09:23:30;;;;;;;6.03;0.95;;;;;;;11.80;70.80;97807.41;5094535;28;20055;-46
2022/11/04 09:25:57;;;;;;;8.93;1.50;;;;;;;11.65;70.72;97808.88;5094507;28;20117;-46
2022/11/04 09:28:24;;;;;;;12.82;7.65;;;;;;;11.52;71.67;97815.19;5094428;28;20020;-45
2022/11/04 09:30:50;;;;;;;9.10;2.63;;;;;;;11.37;73.26;97823.50;5094444;28;20028;-45
2022/11/04 09:33:16;;;;;;;2.13;1.20;;;;;;;11.24;73.03;97823.72;5093020;28;20103;-45
2022/11/04 09:35:42;;;;;;;7.97;3.03;;;;;;;11.02;75.22;97821.59;5093018;28;20028;-44
2022/11/04 09:38:07;;;;;;;5.65;1.75;;;;;;;10.89;77.12;97846.22;5094267;28;20107;-44
2022/11/04 09:40:36;;;;;;;7.28;1.73;;;;;;;10.79;77.93;97831.00;5093115;28;20394;-44
2022/11/04 09:43:36;;;;;;;2.72;0.95;;;;;;;10.63;77.99;97834.25;5094121;28;20123;-44
2022/11/04 09:46:03;;;;;;;7.65;1.45;;;;;;;10.38;80.63;97857.94;5094126;28;20070;-44
2022/11/04 09:48:42;;;;;;;8.65;1.52;;;;;;;10.37;82.67;97857.16;5092774;28;20397;-44
2022/11/04 09:51:08;;;;;;;2.63;1.05;;;;;;;10.37;82.84;97846.66;5076405;28;20031;-44
2022/11/04 09:54:07;;;;;;;13.45;1.88;;;;;;;10.25;83.76;97863.31;5075921;28;20166;-44
2022/11/04 09:56:44;;;;;;;10.10;1.83;;;;;;;10.18;85.02;97863.38;5092560;28;20375;-44
2022/11/04 09:59:13;;;;;;;13.93;2.13;;;;;;;10.14;86.35;97857.78;5093938;28;20020;-44
2022/11/04 10:01:55;;;;;;;8.73;2.10;;;;;;;10.05;86.58;97848.59;5093747;28;20020;-45
2022/11/04 10:04:21;;;;;;;10.55;1.60;;;;;;;10.04;87.38;97860.09;5093858;28;20039;-45
2022/11/04 10:07:10;;;;;;;4.35;1.10;;;;;;;9.97;86.99;97861.97;5093701;28;20032;-44
2022/11/04 10:10:05;;;;;;;11.82;1.50;;;;;;;9.98;87.71;97846.03;5093658;28;20413;-44
2022/11/04 10:13:16;;;;;;;9.30;1.60;;;;;;;10.08;88.49;97863.06;5093730;28;20082;-44
2022/11/04 10:15:59;;;;;;;5.07;1.17;;;;;;;10.19;89.06;97872.84;5093571;28;20024;-44
2022/11/04 10:18:52;;;;;;;4.78;1.15;;;;;;;10.32;88.79;97871.94;5092266;28;20401;-44
2022/11/04 10:21:42;;;;;;;5.32;1.30;;;;;;;10.42;89.17;97861.72;5093401;28;20040;-45
2022/11/04 10:24:14;;;;;;;10.75;1.60;;;;;;;10.63;90.47;97880.69;5092158;28;20539;-44
2022/11/04 10:26:59;;;;;;;7.35;1.23;;;;;;;10.73;89.51;97878.34;5093335;28;20028;-44
2022/11/04 10:29:29;;;;;;;4.25;1.60;;;;;;;10.63;88.93;97888.56;5093438;28;20043;-44
2022/11/04 10:31:58;;;;;;;3.65;1.10;;;;;;;10.63;88.88;97885.94;5092011;28;20041;-44
2022/11/04 10:34:32;;;;;;;5.97;1.20;;;;;;;10.54;87.28;97878.34;5091902;28;20035;-44
2022/11/04 10:36:57;;;;;;;4.00;1.23;;;;;;;10.55;88.05;97895.69;5093227;28;20024;-44
2022/11/04 10:39:29;;;;;;;9.90;1.92;;;;;;;10.50;87.88;97924.41;5093085;28;20080;-44
2022/11/04 10:41:57;;;;;;;7.68;1.30;;;;;;;10.85;90.49;97928.25;5092946;28;20020;-44
2022/11/04 10:44:30;;;;;;;5.30;1.33;;;;;;;11.14;90.45;97905.66;5092572;28;20107;-45
2022/11/04 10:47:07;;;;;;;5.65;2.13;;;;;;;11.30;90.69;97909.47;5074787;28;20063;-45
2022/11/04 10:49:52;;;;;;;4.65;1.40;;;;;;;11.49;90.50;97908.41;5092971;28;20028;-44
2022/11/04 10:52:19;;;;;;;7.85;1.65;;;;;;;11.77;90.87;97914.84;5092893;28;20030;-44
2022/11/04 10:54:49;;;;;;;6.28;1.60;;;;;;;12.02;90.22;97919.13;5092866;28;20024;-44
2022/11/04 10:57:24;;;;;;;4.45;1.40;;;;;;;12.24;88.67;97919.38;5092784;28;20020;-45
2022/11/04 10:59:59;;;;;;;7.43;1.75;;;;;;;12.48;88.54;97920.13;5091429;28;20032;-45
2022/11/04 11:02:36;;;;;;;9.63;1.30;;;;;;;12.74;87.90;97917.00;5092598;28;20035;-46
2022/11/04 11:05:17;;;;;;;4.43;1.00;;;;;;;12.92;86.75;97907.31;5091334;28;20093;-45
2022/11/04 11:07:45;;;;;;;6.40;0.93;;;;;;;12.97;85.30;97905.56;5091317;28;20397;-46
2022/11/04 11:10:23;;;;;;;9.98;1.05;;;;;;;12.99;84.28;97913.25;5092506;28;20024;-45
2022/11/04 11:12:54;;;;;;;4.20;1.20;;;;;;;13.09;83.42;97917.91;5092514;28;20103;-46
2022/11/04 11:15:26;;;;;;;5.63;1.35;;;;;;;13.30;82.64;97919.09;5092444;28;20028;-46
2022/11/04 11:18:00;;;;;;;4.75;1.15;;;;;;;13.45;81.17;97911.47;5091185;28;20042;-46
2022/11/04 11:20:26;;;;;;;9.10;1.52;;;;;;;13.60;79.73;97908.25;5090875;28;20517;-46
2022/11/04 11:22:55;;;;;;;6.18;1.63;;;;;;;13.77;79.54;97905.66;5092523;28;20048;-46
2022/11/04 11:25:28;;;;;;;5.80;1.23;;;;;;;14.06;79.09;97905.53;5092244;28;20093;-46
2022/11/04 11:28:09;;;;;;;8.18;1.42;;;;;;;14.45;79.03;97909.00;5092269;28;20021;-46
2022/11/04 11:30:45;;;;;;;6.63;1.45;;;;;;;14.78;76.09;97900.19;5090915;28;20024;-46
2022/11/04 11:33:28;;;;;;;6.97;1.38;;;;;;;15.17;77.82;97912.47;5092137;28;20486;-46
2022/11/04 11:36:17;;;;;;;7.40;1.33;;;;;;;15.72;77.27;97910.63;5090810;28;20034;-46
2022/11/04 11:39:02;;;;;;;3.92;1.23;;;;;;;17.00;75.58;97911.34;5091514;28;20171;-46
2022/11/04 11:41:32;;;;;;;3.42;1.20;;;;;;;17.52;71.12;97909.56;5092026;28;20027;-46
2022/11/04 11:44:06;;;;;;;4.15;1.27;;;;;;;17.62;70.85;97914.09;5092307;28;20074;-46
2022/11/04 11:46:36;;;;;;;9.43;1.47;;;;;;;17.52;69.64;97915.66;5092060;28;20097;-46
2022/11/04 11:49:04;;;;;;;5.82;1.52;;;;;;;17.53;69.77;97911.19;5091998;28;20038;-46
2022/11/04 11:51:36;;;;;;;9.13;1.00;;;;;;;17.98;67.95;97911.47;5091855;28;20085;-46
2022/11/04 11:54:32;;;;;;;6.78;1.17;;;;;;;18.46;66.66;97917.22;5091945;28;20079;-44
2022/11/04 11:57:34;;;;;;;16.23;1.60;;;;;;;18.32;65.70;97916.97;5091228;28;20523;-43
2022/11/04 12:00:09;;;;;;;10.05;1.40;;;;;;;18.40;63.25;97923.59;5088004;28;20369;-44
2022/11/04 12:02:53;;;;;;;5.60;1.08;;;;;;;18.67;59.24;97926.72;5090537;28;20081;-43
2022/11/04 12:05:27;;;;;;;4.65;1.10;;;;;;;18.62;57.39;97925.94;5090475;28;20131;-43
2022/11/04 12:08:22;;;;;;;5.60;1.05;;;;;;;18.91;58.92;97924.25;5091858;28;20393;-43
2022/11/04 12:11:08;;;;;;;5.13;1.58;;;;;;;19.50;59.17;97927.91;5091845;28;20093;-43
2022/11/04 12:13:40;;;;;;;6.18;1.10;;;;;;;19.56;57.35;97939.31;5090502;28;20056;-43
2022/11/04 12:16:15;;;;;;;7.60;1.50;;;;;;;19.09;56.05;97933.44;5091753;28;20032;-43
2022/11/04 12:19:26;;;;;;;5.72;1.13;;;;;;;18.79;58.68;97938.88;5091742;28;20096;-43
2022/11/04 12:22:05;;;;;;;6.72;1.15;;;;;;;18.59;55.86;97935.22;5075931;28;20043;-43
2022/11/04 12:24:46;;;;;;;8.23;1.65;;;;;;;18.44;56.34;97933.41;5090390;28;20032;-43
2022/11/04 12:27:28;;;;;;;9.63;1.35;;;;;;;18.42;56.17;97938.22;5091637;28;20513;-44
2022/11/04 12:30:13;;;;;;;20.58;2.47;;;;;;;18.42;53.84;97938.22;5090348;28;20028;-44